sensor_id;sensor_type;location;lat;lon;timestamp;P1;durP1;ratioP1;P2;durP2;ratioP2
52946;SDS011;45776;40.400;17.260;2022-07-23T00:00:56;5.95;;;3.92;;
52946;SDS011;45776;40.400;17.260;2022-07-23T00:03:22;6.10;;;3.85;;
52946;SDS011;45776;40.400;17.260;2022-07-23T00:05:48;7.50;;;4.25;;
52946;SDS011;45776;40.400;17.260;2022-07-23T00:08:13;7.60;;;4.30;;
52946;SDS011;45776;40.400;17.260;2022-07-23T00:10:39;7.75;;;4.45;;
52946;SDS011;45776;40.400;17.260;2022-07-23T00:13:04;6.90;;;4.20;;
52946;SDS011;45776;40.400;17.260;2022-07-23T00:15:30;7.13;;;3.70;;
52946;SDS011;45776;40.400;17.260;2022-07-23T00:17:55;7.03;;;4.00;;
52946;SDS011;45776;40.400;17.260;2022-07-23T00:20:21;6.43;;;3.40;;
52946;SDS011;45776;40.400;17.260;2022-07-23T00:22:47;6.80;;;4.70;;
52946;SDS011;45776;40.400;17.260;2022-07-23T00:25:17;8.95;;;4.45;;
52946;SDS011;45776;40.400;17.260;2022-07-23T00:27:42;6.30;;;4.15;;
52946;SDS011;45776;40.400;17.260;2022-07-23T00:30:08;6.88;;;4.05;;
52946;SDS011;45776;40.400;17.260;2022-07-23T00:35:12;6.63;;;3.90;;
52946;SDS011;45776;40.400;17.260;2022-07-23T00:37:37;4.90;;;3.80;;
52946;SDS011;45776;40.400;17.260;2022-07-23T00:40:03;9.30;;;3.90;;
52946;SDS011;45776;40.400;17.260;2022-07-23T00:42:30;5.07;;;3.75;;
52946;SDS011;45776;40.400;17.260;2022-07-23T00:44:56;5.85;;;3.75;;
52946;SDS011;45776;40.400;17.260;2022-07-23T00:47:22;5.65;;;4.03;;
52946;SDS011;45776;40.400;17.260;2022-07-23T00:49:47;6.65;;;3.92;;
52946;SDS011;45776;40.400;17.260;2022-07-23T00:52:13;6.22;;;3.88;;
52946;SDS011;45776;40.400;17.260;2022-07-23T00:54:38;4.88;;;3.88;;
52946;SDS011;45776;40.400;17.260;2022-07-23T00:57:04;5.82;;;3.80;;
52946;SDS011;45776;40.400;17.260;2022-07-23T00:59:30;5.93;;;3.83;;
52946;SDS011;45776;40.400;17.260;2022-07-23T01:01:55;7.63;;;4.25;;
52946;SDS011;45776;40.400;17.260;2022-07-23T01:04:21;7.13;;;3.83;;
52946;SDS011;45776;40.400;17.260;2022-07-23T01:06:47;5.50;;;3.53;;
52946;SDS011;45776;40.400;17.260;2022-07-23T01:09:13;6.97;;;3.67;;
52946;SDS011;45776;40.400;17.260;2022-07-23T01:11:38;9.13;;;4.03;;
52946;SDS011;45776;40.400;17.260;2022-07-23T01:14:09;12.00;;;3.80;;
52946;SDS011;45776;40.400;17.260;2022-07-23T01:16:36;5.45;;;3.97;;
52946;SDS011;45776;40.400;17.260;2022-07-23T01:19:01;8.25;;;3.55;;
52946;SDS011;45776;40.400;17.260;2022-07-23T01:21:28;4.82;;;3.30;;
52946;SDS011;45776;40.400;17.260;2022-07-23T01:23:54;6.72;;;3.83;;
52946;SDS011;45776;40.400;17.260;2022-07-23T01:26:20;7.15;;;3.72;;
52946;SDS011;45776;40.400;17.260;2022-07-23T01:28:45;7.38;;;3.75;;
52946;SDS011;45776;40.400;17.260;2022-07-23T01:31:11;7.68;;;3.58;;
52946;SDS011;45776;40.400;17.260;2022-07-23T01:33:36;7.55;;;4.07;;
52946;SDS011;45776;40.400;17.260;2022-07-23T01:36:02;4.90;;;3.28;;
52946;SDS011;45776;40.400;17.260;2022-07-23T01:38:27;5.00;;;3.08;;
52946;SDS011;45776;40.400;17.260;2022-07-23T01:40:53;7.22;;;3.35;;
52946;SDS011;45776;40.400;17.260;2022-07-23T01:43:18;5.38;;;3.28;;
52946;SDS011;45776;40.400;17.260;2022-07-23T01:45:44;3.85;;;3.03;;
52946;SDS011;45776;40.400;17.260;2022-07-23T01:48:09;7.07;;;4.07;;
52946;SDS011;45776;40.400;17.260;2022-07-23T01:50:35;6.57;;;3.40;;
52946;SDS011;45776;40.400;17.260;2022-07-23T01:53:00;5.28;;;3.55;;
52946;SDS011;45776;40.400;17.260;2022-07-23T01:55:26;5.35;;;3.25;;
52946;SDS011;45776;40.400;17.260;2022-07-23T01:57:51;6.32;;;3.00;;
52946;SDS011;45776;40.400;17.260;2022-07-23T02:00:17;4.43;;;2.80;;
52946;SDS011;45776;40.400;17.260;2022-07-23T02:02:42;7.13;;;3.22;;
52946;SDS011;45776;40.400;17.260;2022-07-23T02:05:08;5.53;;;3.17;;
52946;SDS011;45776;40.400;17.260;2022-07-23T02:07:34;4.80;;;3.10;;
52946;SDS011;45776;40.400;17.260;2022-07-23T02:09:59;4.60;;;3.30;;
52946;SDS011;45776;40.400;17.260;2022-07-23T02:12:24;6.57;;;3.05;;
52946;SDS011;45776;40.400;17.260;2022-07-23T02:14:50;4.53;;;3.13;;
52946;SDS011;45776;40.400;17.260;2022-07-23T02:17:15;5.07;;;3.25;;
52946;SDS011;45776;40.400;17.260;2022-07-23T02:19:41;4.30;;;3.40;;
52946;SDS011;45776;40.400;17.260;2022-07-23T02:22:06;4.47;;;2.90;;
52946;SDS011;45776;40.400;17.260;2022-07-23T02:24:32;5.65;;;2.95;;
52946;SDS011;45776;40.400;17.260;2022-07-23T02:26:57;4.47;;;2.88;;
52946;SDS011;45776;40.400;17.260;2022-07-23T02:29:23;5.97;;;3.30;;
52946;SDS011;45776;40.400;17.260;2022-07-23T02:31:48;5.85;;;3.22;;
52946;SDS011;45776;40.400;17.260;2022-07-23T02:34:14;9.52;;;3.65;;
52946;SDS011;45776;40.400;17.260;2022-07-23T02:36:39;5.53;;;3.28;;
52946;SDS011;45776;40.400;17.260;2022-07-23T02:39:05;11.63;;;4.13;;
52946;SDS011;45776;40.400;17.260;2022-07-23T02:41:30;5.82;;;3.60;;
52946;SDS011;45776;40.400;17.260;2022-07-23T02:43:56;5.25;;;3.55;;
52946;SDS011;45776;40.400;17.260;2022-07-23T02:46:21;6.30;;;4.80;;
52946;SDS011;45776;40.400;17.260;2022-07-23T02:48:47;6.20;;;3.53;;
52946;SDS011;45776;40.400;17.260;2022-07-23T02:51:12;4.85;;;3.45;;
52946;SDS011;45776;40.400;17.260;2022-07-23T02:53:38;4.65;;;3.30;;
52946;SDS011;45776;40.400;17.260;2022-07-23T02:56:03;6.82;;;3.60;;
52946;SDS011;45776;40.400;17.260;2022-07-23T02:58:29;6.60;;;3.60;;
52946;SDS011;45776;40.400;17.260;2022-07-23T03:00:54;7.30;;;3.70;;
52946;SDS011;45776;40.400;17.260;2022-07-23T03:03:20;5.47;;;3.45;;
52946;SDS011;45776;40.400;17.260;2022-07-23T03:05:45;7.97;;;3.60;;
52946;SDS011;45776;40.400;17.260;2022-07-23T03:08:11;9.25;;;3.50;;
52946;SDS011;45776;40.400;17.260;2022-07-23T03:10:36;7.72;;;3.55;;
52946;SDS011;45776;40.400;17.260;2022-07-23T03:13:02;6.82;;;3.40;;
52946;SDS011;45776;40.400;17.260;2022-07-23T03:15:28;7.03;;;3.67;;
52946;SDS011;45776;40.400;17.260;2022-07-23T03:17:53;5.22;;;3.65;;
52946;SDS011;45776;40.400;17.260;2022-07-23T03:20:19;7.82;;;3.60;;
52946;SDS011;45776;40.400;17.260;2022-07-23T03:22:44;9.32;;;4.35;;
52946;SDS011;45776;40.400;17.260;2022-07-23T03:25:10;7.18;;;4.53;;
52946;SDS011;45776;40.400;17.260;2022-07-23T03:27:35;6.07;;;4.38;;
52946;SDS011;45776;40.400;17.260;2022-07-23T03:30:01;6.65;;;4.28;;
52946;SDS011;45776;40.400;17.260;2022-07-23T03:32:27;5.88;;;4.40;;
52946;SDS011;45776;40.400;17.260;2022-07-23T03:34:53;9.98;;;5.13;;
52946;SDS011;45776;40.400;17.260;2022-07-23T03:37:19;8.43;;;4.45;;
52946;SDS011;45776;40.400;17.260;2022-07-23T03:39:45;9.45;;;5.28;;
52946;SDS011;45776;40.400;17.260;2022-07-23T03:42:10;6.75;;;4.88;;
52946;SDS011;45776;40.400;17.260;2022-07-23T03:44:36;7.30;;;5.35;;
52946;SDS011;45776;40.400;17.260;2022-07-23T03:47:03;6.78;;;4.95;;
52946;SDS011;45776;40.400;17.260;2022-07-23T03:49:30;10.70;;;5.50;;
52946;SDS011;45776;40.400;17.260;2022-07-23T03:51:55;7.13;;;5.45;;
52946;SDS011;45776;40.400;17.260;2022-07-23T03:54:21;12.30;;;5.45;;
52946;SDS011;45776;40.400;17.260;2022-07-23T03:56:46;7.28;;;5.32;;
52946;SDS011;45776;40.400;17.260;2022-07-23T03:59:12;13.88;;;5.60;;
52946;SDS011;45776;40.400;17.260;2022-07-23T04:01:37;6.80;;;5.63;;
52946;SDS011;45776;40.400;17.260;2022-07-23T04:04:03;9.82;;;5.75;;
52946;SDS011;45776;40.400;17.260;2022-07-23T04:06:28;10.38;;;5.78;;
52946;SDS011;45776;40.400;17.260;2022-07-23T04:08:54;8.00;;;5.70;;
52946;SDS011;45776;40.400;17.260;2022-07-23T04:11:19;11.68;;;5.97;;
52946;SDS011;45776;40.400;17.260;2022-07-23T04:13:45;8.05;;;5.47;;
52946;SDS011;45776;40.400;17.260;2022-07-23T04:16:11;12.30;;;5.75;;
52946;SDS011;45776;40.400;17.260;2022-07-23T04:18:37;11.30;;;5.95;;
52946;SDS011;45776;40.400;17.260;2022-07-23T04:21:02;12.18;;;5.35;;
52946;SDS011;45776;40.400;17.260;2022-07-23T04:23:28;11.38;;;5.55;;
52946;SDS011;45776;40.400;17.260;2022-07-23T04:25:53;12.25;;;6.00;;
52946;SDS011;45776;40.400;17.260;2022-07-23T04:28:19;20.70;;;8.23;;
52946;SDS011;45776;40.400;17.260;2022-07-23T04:30:44;10.90;;;7.13;;
52946;SDS011;45776;40.400;17.260;2022-07-23T04:33:10;14.43;;;6.93;;
52946;SDS011;45776;40.400;17.260;2022-07-23T04:35:36;14.20;;;7.03;;
52946;SDS011;45776;40.400;17.260;2022-07-23T04:38:02;12.30;;;7.35;;
52946;SDS011;45776;40.400;17.260;2022-07-23T04:40:28;14.98;;;7.30;;
52946;SDS011;45776;40.400;17.260;2022-07-23T04:42:54;9.23;;;5.53;;
52946;SDS011;45776;40.400;17.260;2022-07-23T04:45:19;8.20;;;5.05;;
52946;SDS011;45776;40.400;17.260;2022-07-23T04:47:45;13.77;;;4.30;;
52946;SDS011;45776;40.400;17.260;2022-07-23T04:50:11;6.60;;;4.20;;
52946;SDS011;45776;40.400;17.260;2022-07-23T04:52:37;7.00;;;4.03;;
52946;SDS011;45776;40.400;17.260;2022-07-23T04:55:02;5.50;;;4.00;;
52946;SDS011;45776;40.400;17.260;2022-07-23T04:57:28;11.18;;;4.25;;
52946;SDS011;45776;40.400;17.260;2022-07-23T04:59:53;7.97;;;3.58;;
52946;SDS011;45776;40.400;17.260;2022-07-23T05:02:19;4.20;;;3.30;;
52946;SDS011;45776;40.400;17.260;2022-07-23T05:04:44;5.93;;;3.83;;
52946;SDS011;45776;40.400;17.260;2022-07-23T05:07:10;6.18;;;3.70;;
52946;SDS011;45776;40.400;17.260;2022-07-23T05:09:35;6.32;;;2.90;;
52946;SDS011;45776;40.400;17.260;2022-07-23T05:12:01;8.18;;;4.80;;
52946;SDS011;45776;40.400;17.260;2022-07-23T05:14:27;6.45;;;4.22;;
52946;SDS011;45776;40.400;17.260;2022-07-23T05:16:53;4.70;;;3.80;;
52946;SDS011;45776;40.400;17.260;2022-07-23T05:19:19;8.93;;;4.53;;
52946;SDS011;45776;40.400;17.260;2022-07-23T05:21:45;6.95;;;4.22;;
52946;SDS011;45776;40.400;17.260;2022-07-23T05:24:11;5.00;;;3.97;;
52946;SDS011;45776;40.400;17.260;2022-07-23T05:26:36;8.00;;;4.50;;
52946;SDS011;45776;40.400;17.260;2022-07-23T05:29:02;6.45;;;3.90;;
52946;SDS011;45776;40.400;17.260;2022-07-23T05:31:27;8.88;;;4.38;;
52946;SDS011;45776;40.400;17.260;2022-07-23T05:33:53;7.07;;;3.45;;
52946;SDS011;45776;40.400;17.260;2022-07-23T05:36:18;4.30;;;3.90;;
52946;SDS011;45776;40.400;17.260;2022-07-23T05:38:43;11.85;;;4.05;;
52946;SDS011;45776;40.400;17.260;2022-07-23T05:41:09;8.48;;;3.67;;
52946;SDS011;45776;40.400;17.260;2022-07-23T05:43:34;7.07;;;3.58;;
52946;SDS011;45776;40.400;17.260;2022-07-23T05:46:00;6.57;;;4.40;;
52946;SDS011;45776;40.400;17.260;2022-07-23T05:48:26;9.07;;;3.88;;
52946;SDS011;45776;40.400;17.260;2022-07-23T05:50:51;6.82;;;3.70;;
52946;SDS011;45776;40.400;17.260;2022-07-23T05:53:17;10.85;;;4.05;;
52946;SDS011;45776;40.400;17.260;2022-07-23T05:55:42;9.10;;;3.60;;
52946;SDS011;45776;40.400;17.260;2022-07-23T05:58:08;7.97;;;4.10;;
52946;SDS011;45776;40.400;17.260;2022-07-23T06:00:34;6.40;;;3.90;;
52946;SDS011;45776;40.400;17.260;2022-07-23T06:03:00;6.88;;;4.10;;
52946;SDS011;45776;40.400;17.260;2022-07-23T06:05:26;12.32;;;4.15;;
52946;SDS011;45776;40.400;17.260;2022-07-23T06:07:51;5.47;;;3.95;;
52946;SDS011;45776;40.400;17.260;2022-07-23T06:10:18;8.95;;;4.40;;
52946;SDS011;45776;40.400;17.260;2022-07-23T06:12:43;6.28;;;4.30;;
52946;SDS011;45776;40.400;17.260;2022-07-23T06:15:09;9.75;;;3.78;;
52946;SDS011;45776;40.400;17.260;2022-07-23T06:17:35;6.30;;;3.95;;
52946;SDS011;45776;40.400;17.260;2022-07-23T06:20:04;5.95;;;3.70;;
52946;SDS011;45776;40.400;17.260;2022-07-23T06:22:30;8.07;;;3.83;;
52946;SDS011;45776;40.400;17.260;2022-07-23T06:24:56;5.90;;;4.07;;
52946;SDS011;45776;40.400;17.260;2022-07-23T06:27:22;7.28;;;4.57;;
52946;SDS011;45776;40.400;17.260;2022-07-23T06:29:47;6.38;;;4.53;;
52946;SDS011;45776;40.400;17.260;2022-07-23T06:32:12;8.15;;;4.53;;
52946;SDS011;45776;40.400;17.260;2022-07-23T06:34:38;8.00;;;4.60;;
52946;SDS011;45776;40.400;17.260;2022-07-23T06:37:03;8.98;;;4.32;;
52946;SDS011;45776;40.400;17.260;2022-07-23T06:39:29;6.72;;;4.30;;
52946;SDS011;45776;40.400;17.260;2022-07-23T06:41:54;8.00;;;4.50;;
52946;SDS011;45776;40.400;17.260;2022-07-23T06:44:20;4.90;;;3.17;;
52946;SDS011;45776;40.400;17.260;2022-07-23T06:46:46;5.07;;;3.72;;
52946;SDS011;45776;40.400;17.260;2022-07-23T06:49:11;6.22;;;3.65;;
52946;SDS011;45776;40.400;17.260;2022-07-23T06:51:37;8.00;;;3.60;;
52946;SDS011;45776;40.400;17.260;2022-07-23T06:54:02;6.80;;;3.80;;
52946;SDS011;45776;40.400;17.260;2022-07-23T06:56:28;5.95;;;3.35;;
52946;SDS011;45776;40.400;17.260;2022-07-23T06:58:54;4.57;;;3.10;;
52946;SDS011;45776;40.400;17.260;2022-07-23T07:01:19;5.10;;;3.28;;
52946;SDS011;45776;40.400;17.260;2022-07-23T07:03:46;5.05;;;3.40;;
52946;SDS011;45776;40.400;17.260;2022-07-23T07:06:12;4.18;;;3.60;;
52946;SDS011;45776;40.400;17.260;2022-07-23T07:08:37;4.82;;;3.60;;
52946;SDS011;45776;40.400;17.260;2022-07-23T07:11:03;4.07;;;3.20;;
52946;SDS011;45776;40.400;17.260;2022-07-23T07:13:28;5.38;;;3.60;;
52946;SDS011;45776;40.400;17.260;2022-07-23T07:15:54;5.38;;;4.40;;
52946;SDS011;45776;40.400;17.260;2022-07-23T07:18:19;7.03;;;4.53;;
52946;SDS011;45776;40.400;17.260;2022-07-23T07:20:45;7.88;;;4.75;;
52946;SDS011;45776;40.400;17.260;2022-07-23T07:23:10;6.85;;;4.25;;
52946;SDS011;45776;40.400;17.260;2022-07-23T07:25:37;6.88;;;4.68;;
52946;SDS011;45776;40.400;17.260;2022-07-23T07:28:03;6.55;;;4.65;;
52946;SDS011;45776;40.400;17.260;2022-07-23T07:30:28;5.32;;;4.70;;
52946;SDS011;45776;40.400;17.260;2022-07-23T07:32:54;10.77;;;5.10;;
52946;SDS011;45776;40.400;17.260;2022-07-23T07:35:19;5.35;;;4.38;;
52946;SDS011;45776;40.400;17.260;2022-07-23T07:37:45;6.82;;;4.55;;
52946;SDS011;45776;40.400;17.260;2022-07-23T07:40:10;6.28;;;4.60;;
52946;SDS011;45776;40.400;17.260;2022-07-23T07:42:49;5.28;;;4.30;;
52946;SDS011;45776;40.400;17.260;2022-07-23T07:45:16;7.05;;;4.80;;
52946;SDS011;45776;40.400;17.260;2022-07-23T07:47:42;7.32;;;4.32;;
52946;SDS011;45776;40.400;17.260;2022-07-23T07:50:08;6.88;;;4.45;;
52946;SDS011;45776;40.400;17.260;2022-07-23T07:52:35;9.50;;;4.38;;
52946;SDS011;45776;40.400;17.260;2022-07-23T07:55:04;6.57;;;4.82;;
52946;SDS011;45776;40.400;17.260;2022-07-23T07:57:31;7.95;;;4.80;;
52946;SDS011;45776;40.400;17.260;2022-07-23T07:59:56;5.47;;;4.53;;
52946;SDS011;45776;40.400;17.260;2022-07-23T08:02:22;5.43;;;4.82;;
52946;SDS011;45776;40.400;17.260;2022-07-23T08:04:47;5.25;;;4.75;;
52946;SDS011;45776;40.400;17.260;2022-07-23T08:07:14;7.18;;;4.80;;
52946;SDS011;45776;40.400;17.260;2022-07-23T08:09:40;4.70;;;4.20;;
52946;SDS011;45776;40.400;17.260;2022-07-23T08:12:05;5.72;;;4.32;;
52946;SDS011;45776;40.400;17.260;2022-07-23T08:14:31;5.78;;;4.60;;
52946;SDS011;45776;40.400;17.260;2022-07-23T08:16:56;4.78;;;4.38;;
52946;SDS011;45776;40.400;17.260;2022-07-23T08:19:22;8.43;;;5.30;;
52946;SDS011;45776;40.400;17.260;2022-07-23T08:21:47;6.75;;;4.25;;
52946;SDS011;45776;40.400;17.260;2022-07-23T08:24:13;5.03;;;3.83;;
52946;SDS011;45776;40.400;17.260;2022-07-23T08:26:38;8.13;;;4.30;;
52946;SDS011;45776;40.400;17.260;2022-07-23T08:29:04;7.38;;;4.70;;
52946;SDS011;45776;40.400;17.260;2022-07-23T08:31:29;6.50;;;4.60;;
52946;SDS011;45776;40.400;17.260;2022-07-23T08:33:55;10.90;;;5.60;;
52946;SDS011;45776;40.400;17.260;2022-07-23T08:36:21;7.30;;;4.70;;
52946;SDS011;45776;40.400;17.260;2022-07-23T08:38:47;7.45;;;4.88;;
52946;SDS011;45776;40.400;17.260;2022-07-23T08:41:12;7.10;;;5.38;;
52946;SDS011;45776;40.400;17.260;2022-07-23T08:43:39;6.78;;;5.32;;
52946;SDS011;45776;40.400;17.260;2022-07-23T08:46:05;7.82;;;5.32;;
52946;SDS011;45776;40.400;17.260;2022-07-23T08:48:34;6.93;;;5.03;;
52946;SDS011;45776;40.400;17.260;2022-07-23T08:51:04;9.07;;;5.60;;
52946;SDS011;45776;40.400;17.260;2022-07-23T08:53:31;9.85;;;5.15;;
52946;SDS011;45776;40.400;17.260;2022-07-23T08:55:58;7.22;;;4.53;;
52946;SDS011;45776;40.400;17.260;2022-07-23T08:58:29;7.93;;;5.38;;
52946;SDS011;45776;40.400;17.260;2022-07-23T09:00:55;8.95;;;5.05;;
52946;SDS011;45776;40.400;17.260;2022-07-23T09:03:23;6.53;;;4.82;;
52946;SDS011;45776;40.400;17.260;2022-07-23T09:05:52;7.43;;;4.82;;
52946;SDS011;45776;40.400;17.260;2022-07-23T09:08:22;7.90;;;4.88;;
52946;SDS011;45776;40.400;17.260;2022-07-23T09:11:00;6.70;;;5.43;;
52946;SDS011;45776;40.400;17.260;2022-07-23T09:15:58;5.40;;;4.90;;
52946;SDS011;45776;40.400;17.260;2022-07-23T09:18:48;9.13;;;5.00;;
52946;SDS011;45776;40.400;17.260;2022-07-23T09:31:41;9.07;;;5.28;;
52946;SDS011;45776;40.400;17.260;2022-07-23T09:34:11;8.10;;;5.55;;
52946;SDS011;45776;40.400;17.260;2022-07-23T09:36:45;8.93;;;5.25;;
52946;SDS011;45776;40.400;17.260;2022-07-23T09:39:12;7.80;;;5.45;;
52946;SDS011;45776;40.400;17.260;2022-07-23T09:41:43;9.93;;;5.60;;
52946;SDS011;45776;40.400;17.260;2022-07-23T09:44:11;12.60;;;5.93;;
52946;SDS011;45776;40.400;17.260;2022-07-23T09:46:41;7.55;;;5.68;;
52946;SDS011;45776;40.400;17.260;2022-07-23T09:51:55;7.95;;;6.15;;
52946;SDS011;45776;40.400;17.260;2022-07-23T09:54:23;9.20;;;5.88;;
52946;SDS011;45776;40.400;17.260;2022-07-23T09:56:58;8.35;;;6.35;;
52946;SDS011;45776;40.400;17.260;2022-07-23T09:59:46;11.35;;;6.28;;
52946;SDS011;45776;40.400;17.260;2022-07-23T10:02:12;8.10;;;5.75;;
52946;SDS011;45776;40.400;17.260;2022-07-23T10:04:39;8.10;;;4.78;;
52946;SDS011;45776;40.400;17.260;2022-07-23T10:07:07;8.02;;;4.90;;
52946;SDS011;45776;40.400;17.260;2022-07-23T10:09:41;6.50;;;4.85;;
52946;SDS011;45776;40.400;17.260;2022-07-23T10:12:12;7.53;;;4.78;;
52946;SDS011;45776;40.400;17.260;2022-07-23T10:14:47;8.73;;;5.10;;
52946;SDS011;45776;40.400;17.260;2022-07-23T10:17:14;6.22;;;5.10;;
52946;SDS011;45776;40.400;17.260;2022-07-23T10:19:40;6.85;;;4.82;;
52946;SDS011;45776;40.400;17.260;2022-07-23T10:25:12;7.03;;;5.22;;
52946;SDS011;45776;40.400;17.260;2022-07-23T10:35:50;6.22;;;4.45;;
52946;SDS011;45776;40.400;17.260;2022-07-23T10:41:32;6.32;;;4.20;;
52946;SDS011;45776;40.400;17.260;2022-07-23T10:47:03;5.22;;;4.18;;
52946;SDS011;45776;40.400;17.260;2022-07-23T10:50:17;7.00;;;3.97;;
52946;SDS011;45776;40.400;17.260;2022-07-23T10:53:02;4.75;;;4.00;;
52946;SDS011;45776;40.400;17.260;2022-07-23T10:58:03;6.18;;;4.43;;
52946;SDS011;45776;40.400;17.260;2022-07-23T11:00:31;7.78;;;4.68;;
52946;SDS011;45776;40.400;17.260;2022-07-23T11:02:58;5.70;;;3.30;;
52946;SDS011;45776;40.400;17.260;2022-07-23T11:05:26;4.75;;;4.20;;
52946;SDS011;45776;40.400;17.260;2022-07-23T11:10:37;4.10;;;3.70;;
52946;SDS011;45776;40.400;17.260;2022-07-23T11:26:43;8.52;;;3.30;;
52946;SDS011;45776;40.400;17.260;2022-07-23T11:32:00;6.57;;;3.63;;
52946;SDS011;45776;40.400;17.260;2022-07-23T11:37:00;6.85;;;3.97;;
52946;SDS011;45776;40.400;17.260;2022-07-23T11:39:27;7.25;;;4.10;;
52946;SDS011;45776;40.400;17.260;2022-07-23T11:41:55;4.32;;;3.45;;
52946;SDS011;45776;40.400;17.260;2022-07-23T11:44:27;4.43;;;3.75;;
52946;SDS011;45776;40.400;17.260;2022-07-23T11:47:04;3.65;;;3.35;;
52946;SDS011;45776;40.400;17.260;2022-07-23T11:49:31;5.25;;;3.35;;
52946;SDS011;45776;40.400;17.260;2022-07-23T11:52:07;5.32;;;3.60;;
52946;SDS011;45776;40.400;17.260;2022-07-23T11:54:33;4.95;;;3.72;;
52946;SDS011;45776;40.400;17.260;2022-07-23T11:57:00;6.47;;;3.60;;
52946;SDS011;45776;40.400;17.260;2022-07-23T11:59:32;6.40;;;4.15;;
52946;SDS011;45776;40.400;17.260;2022-07-23T12:02:02;6.05;;;4.20;;
52946;SDS011;45776;40.400;17.260;2022-07-23T12:07:25;3.90;;;3.47;;
52946;SDS011;45776;40.400;17.260;2022-07-23T12:12:51;7.07;;;4.20;;
52946;SDS011;45776;40.400;17.260;2022-07-23T12:15:20;9.73;;;4.68;;
52946;SDS011;45776;40.400;17.260;2022-07-23T12:17:51;12.45;;;6.05;;
52946;SDS011;45776;40.400;17.260;2022-07-23T12:20:20;12.48;;;4.65;;
52946;SDS011;45776;40.400;17.260;2022-07-23T12:22:49;13.20;;;5.07;;
52946;SDS011;45776;40.400;17.260;2022-07-23T12:25:18;12.65;;;5.50;;
52946;SDS011;45776;40.400;17.260;2022-07-23T12:27:46;8.10;;;5.07;;
52946;SDS011;45776;40.400;17.260;2022-07-23T12:30:26;6.88;;;4.55;;
52946;SDS011;45776;40.400;17.260;2022-07-23T12:33:13;7.47;;;4.97;;
52946;SDS011;45776;40.400;17.260;2022-07-23T12:35:46;11.70;;;5.07;;
52946;SDS011;45776;40.400;17.260;2022-07-23T12:38:13;15.32;;;5.00;;
52946;SDS011;45776;40.400;17.260;2022-07-23T12:40:44;16.10;;;5.10;;
52946;SDS011;45776;40.400;17.260;2022-07-23T12:43:33;25.00;;;5.10;;
52946;SDS011;45776;40.400;17.260;2022-07-23T12:48:29;5.35;;;3.60;;
52946;SDS011;45776;40.400;17.260;2022-07-23T12:56:14;10.00;;;3.83;;
52946;SDS011;45776;40.400;17.260;2022-07-23T12:58:49;6.93;;;3.38;;
52946;SDS011;45776;40.400;17.260;2022-07-23T13:03:53;9.60;;;3.78;;
52946;SDS011;45776;40.400;17.260;2022-07-23T13:06:21;7.90;;;3.63;;
52946;SDS011;45776;40.400;17.260;2022-07-23T13:08:46;10.32;;;4.13;;
52946;SDS011;45776;40.400;17.260;2022-07-23T13:11:12;7.05;;;3.33;;
52946;SDS011;45776;40.400;17.260;2022-07-23T13:13:38;5.93;;;3.50;;
52946;SDS011;45776;40.400;17.260;2022-07-23T13:16:03;6.10;;;3.80;;
52946;SDS011;45776;40.400;17.260;2022-07-23T13:18:29;6.72;;;3.67;;
52946;SDS011;45776;40.400;17.260;2022-07-23T13:20:55;5.85;;;3.47;;
52946;SDS011;45776;40.400;17.260;2022-07-23T13:23:21;6.13;;;3.60;;
52946;SDS011;45776;40.400;17.260;2022-07-23T13:25:47;5.40;;;3.50;;
52946;SDS011;45776;40.400;17.260;2022-07-23T13:28:13;5.57;;;3.70;;
52946;SDS011;45776;40.400;17.260;2022-07-23T13:30:40;6.50;;;3.85;;
52946;SDS011;45776;40.400;17.260;2022-07-23T13:33:06;4.28;;;3.30;;
52946;SDS011;45776;40.400;17.260;2022-07-23T13:35:34;3.63;;;3.30;;
52946;SDS011;45776;40.400;17.260;2022-07-23T13:38:03;3.97;;;3.30;;
52946;SDS011;45776;40.400;17.260;2022-07-23T13:40:30;8.48;;;4.30;;
52946;SDS011;45776;40.400;17.260;2022-07-23T13:42:55;8.40;;;3.42;;
52946;SDS011;45776;40.400;17.260;2022-07-23T13:45:21;12.23;;;3.42;;
52946;SDS011;45776;40.400;17.260;2022-07-23T13:47:47;17.70;;;4.80;;
52946;SDS011;45776;40.400;17.260;2022-07-23T13:50:12;12.57;;;3.75;;
52946;SDS011;45776;40.400;17.260;2022-07-23T13:52:40;4.95;;;3.33;;
52946;SDS011;45776;40.400;17.260;2022-07-23T13:55:05;5.55;;;3.22;;
52946;SDS011;45776;40.400;17.260;2022-07-23T13:57:32;11.88;;;3.90;;
52946;SDS011;45776;40.400;17.260;2022-07-23T13:59:58;4.07;;;3.28;;
52946;SDS011;45776;40.400;17.260;2022-07-23T14:02:24;10.48;;;3.53;;
52946;SDS011;45776;40.400;17.260;2022-07-23T14:04:50;7.93;;;4.03;;
52946;SDS011;45776;40.400;17.260;2022-07-23T14:07:16;4.13;;;3.42;;
52946;SDS011;45776;40.400;17.260;2022-07-23T14:09:42;7.28;;;3.38;;
52946;SDS011;45776;40.400;17.260;2022-07-23T14:12:07;4.55;;;3.13;;
52946;SDS011;45776;40.400;17.260;2022-07-23T14:14:33;3.85;;;3.10;;
52946;SDS011;45776;40.400;17.260;2022-07-23T14:16:59;3.63;;;3.17;;
52946;SDS011;45776;40.400;17.260;2022-07-23T14:19:25;6.63;;;3.30;;
52946;SDS011;45776;40.400;17.260;2022-07-23T14:21:50;5.25;;;2.97;;
52946;SDS011;45776;40.400;17.260;2022-07-23T14:24:16;9.57;;;3.35;;
52946;SDS011;45776;40.400;17.260;2022-07-23T14:26:41;6.80;;;3.50;;
52946;SDS011;45776;40.400;17.260;2022-07-23T14:29:07;4.47;;;3.65;;
52946;SDS011;45776;40.400;17.260;2022-07-23T14:31:32;6.82;;;3.97;;
52946;SDS011;45776;40.400;17.260;2022-07-23T14:33:58;7.40;;;3.63;;
52946;SDS011;45776;40.400;17.260;2022-07-23T14:36:24;5.40;;;3.55;;
52946;SDS011;45776;40.400;17.260;2022-07-23T14:38:50;6.28;;;3.40;;
52946;SDS011;45776;40.400;17.260;2022-07-23T14:41:16;10.00;;;3.70;;
52946;SDS011;45776;40.400;17.260;2022-07-23T14:43:41;5.10;;;3.20;;
52946;SDS011;45776;40.400;17.260;2022-07-23T14:46:07;4.80;;;3.80;;
52946;SDS011;45776;40.400;17.260;2022-07-23T14:48:33;5.68;;;3.38;;
52946;SDS011;45776;40.400;17.260;2022-07-23T14:50:58;6.35;;;3.22;;
52946;SDS011;45776;40.400;17.260;2022-07-23T14:53:24;4.03;;;3.40;;
52946;SDS011;45776;40.400;17.260;2022-07-23T14:55:49;8.60;;;3.90;;
52946;SDS011;45776;40.400;17.260;2022-07-23T14:58:15;6.63;;;3.67;;
52946;SDS011;45776;40.400;17.260;2022-07-23T15:00:42;6.90;;;3.60;;
52946;SDS011;45776;40.400;17.260;2022-07-23T15:03:08;4.90;;;3.30;;
52946;SDS011;45776;40.400;17.260;2022-07-23T15:05:33;8.43;;;3.22;;
52946;SDS011;45776;40.400;17.260;2022-07-23T15:07:59;5.97;;;3.63;;
52946;SDS011;45776;40.400;17.260;2022-07-23T15:10:24;6.75;;;3.30;;
52946;SDS011;45776;40.400;17.260;2022-07-23T15:12:50;6.38;;;3.60;;
52946;SDS011;45776;40.400;17.260;2022-07-23T15:15:15;7.05;;;3.50;;
52946;SDS011;45776;40.400;17.260;2022-07-23T15:17:42;8.55;;;3.53;;
52946;SDS011;45776;40.400;17.260;2022-07-23T15:20:08;11.52;;;4.18;;
52946;SDS011;45776;40.400;17.260;2022-07-23T15:22:34;8.45;;;3.47;;
52946;SDS011;45776;40.400;17.260;2022-07-23T15:24:59;7.80;;;3.50;;
52946;SDS011;45776;40.400;17.260;2022-07-23T15:27:25;8.55;;;3.45;;
52946;SDS011;45776;40.400;17.260;2022-07-23T15:29:51;4.97;;;3.38;;
52946;SDS011;45776;40.400;17.260;2022-07-23T15:32:17;8.95;;;4.00;;
52946;SDS011;45776;40.400;17.260;2022-07-23T15:34:42;11.40;;;3.50;;
52946;SDS011;45776;40.400;17.260;2022-07-23T15:37:08;7.63;;;4.10;;
52946;SDS011;45776;40.400;17.260;2022-07-23T15:39:33;8.15;;;3.90;;
52946;SDS011;45776;40.400;17.260;2022-07-23T15:41:59;5.22;;;3.55;;
52946;SDS011;45776;40.400;17.260;2022-07-23T15:44:25;5.88;;;3.92;;
52946;SDS011;45776;40.400;17.260;2022-07-23T15:46:51;16.42;;;3.97;;